createdAt,value
2022-12-03T00:00:13.572Z,-2.08
2022-12-03T00:02:41.449Z,-2.14
2022-12-03T00:05:09.987Z,-2.07
2022-12-03T00:07:37.524Z,-2.09
2022-12-03T00:10:06.332Z,-2.07
2022-12-03T00:12:33.840Z,-2.10
2022-12-03T00:15:01.300Z,-2.07
2022-12-03T00:17:30.084Z,-2.06
2022-12-03T00:19:57.513Z,-2.14
2022-12-03T00:22:25.120Z,-2.08
2022-12-03T00:24:52.816Z,-2.08
2022-12-03T00:27:20.513Z,-2.12
2022-12-03T00:29:47.979Z,-2.09
2022-12-03T00:32:15.407Z,-2.10
2022-12-03T00:34:44.195Z,-2.09
2022-12-03T00:37:11.638Z,-2.03
2022-12-03T00:39:39.063Z,-2.09
2022-12-03T00:42:06.679Z,-2.07
2022-12-03T00:44:34.139Z,-2.08
2022-12-03T00:47:01.616Z,-2.08
2022-12-03T00:49:29.183Z,-2.10
2022-12-03T00:51:57.954Z,-2.18
2022-12-03T00:54:31.442Z,-2.19
2022-12-03T00:56:59.580Z,-2.15
2022-12-03T00:59:27.152Z,-2.23
2022-12-03T01:01:54.650Z,-2.10
2022-12-03T01:04:22.238Z,-2.10
2022-12-03T01:06:49.754Z,-2.08
2022-12-03T01:09:18.513Z,-2.07
2022-12-03T01:11:45.993Z,-2.09
2022-12-03T01:14:15.357Z,-2.10
2022-12-03T01:16:43.219Z,-2.14
2022-12-03T01:19:15.652Z,-2.07
2022-12-03T01:21:43.419Z,-2.11
2022-12-03T01:24:11.026Z,-2.08
2022-12-03T01:26:40.057Z,-2.10
2022-12-03T01:29:07.835Z,-2.18
2022-12-03T01:31:53.030Z,-2.08
2022-12-03T01:34:20.466Z,-2.10
2022-12-03T01:36:47.920Z,-2.08
2022-12-03T01:39:15.387Z,-2.07
2022-12-03T01:41:44.417Z,-2.10
2022-12-03T01:44:17.917Z,-2.07
2022-12-03T01:46:46.464Z,-2.09
2022-12-03T01:49:17.685Z,-2.04
2022-12-03T01:51:45.667Z,-2.07
2022-12-03T01:54:19.286Z,-2.08
2022-12-03T01:56:48.715Z,-2.11
2022-12-03T01:59:18.054Z,-2.33
2022-12-03T02:01:45.927Z,-2.25
2022-12-03T02:04:15.923Z,-2.21
2022-12-03T02:06:44.987Z,-2.11
2022-12-03T02:09:12.514Z,-2.18
2022-12-03T02:11:41.593Z,-2.15
2022-12-03T02:14:13.115Z,-2.12
2022-12-03T02:16:42.847Z,-2.17
2022-12-03T02:19:20.952Z,-2.12
2022-12-03T02:21:57.049Z,-2.12
2022-12-03T02:24:28.765Z,-2.15
2022-12-03T02:26:57.532Z,-2.04
2022-12-03T02:29:25.350Z,-2.10
2022-12-03T02:31:52.866Z,-2.06
2022-12-03T02:34:38.520Z,-2.08
2022-12-03T02:37:08.423Z,-2.00
2022-12-03T02:39:38.856Z,-2.10
2022-12-03T02:42:25.635Z,-2.05
2022-12-03T02:44:54.176Z,-1.98
2022-12-03T02:47:23.378Z,-1.98
2022-12-03T02:49:51.798Z,-2.00
2022-12-03T02:52:19.703Z,-2.00
2022-12-03T02:54:48.045Z,-2.19
2022-12-03T02:57:17.189Z,-2.27
2022-12-03T02:59:46.088Z,-2.00
2022-12-03T03:02:14.649Z,-1.99
2022-12-03T03:04:43.126Z,-1.99
2022-12-03T03:07:11.450Z,-1.99
2022-12-03T03:09:38.890Z,-1.95
2022-12-03T03:12:07.132Z,-1.96
2022-12-03T03:14:36.505Z,-2.04
2022-12-03T03:17:04.779Z,-2.01
2022-12-03T03:19:32.840Z,-2.02
2022-12-03T03:22:01.396Z,-2.06
2022-12-03T03:24:29.010Z,-2.05
2022-12-03T03:26:56.496Z,-2.08
2022-12-03T03:29:24.037Z,-2.04
2022-12-03T03:31:52.935Z,-2.00
2022-12-03T03:34:20.557Z,-2.12
2022-12-03T03:36:48.040Z,-2.14
2022-12-03T03:39:15.582Z,-2.07
2022-12-03T03:41:44.490Z,-2.13
2022-12-03T03:44:11.924Z,-2.09
2022-12-03T03:46:40.506Z,-2.10
2022-12-03T03:49:10.431Z,-2.10
2022-12-03T03:51:39.597Z,-2.14
2022-12-03T03:54:07.853Z,-2.10
2022-12-03T03:56:35.556Z,-2.15
2022-12-03T03:59:03.872Z,-2.10
2022-12-03T04:01:31.824Z,-2.11
2022-12-03T04:03:59.658Z,-2.13
2022-12-03T04:06:28.815Z,-2.13
2022-12-03T04:08:56.295Z,-2.07
2022-12-03T04:11:41.281Z,-2.03
2022-12-03T04:14:08.765Z,-1.99
2022-12-03T04:16:36.224Z,-2.00
2022-12-03T04:19:03.701Z,-2.01
2022-12-03T04:21:50.291Z,-2.05
2022-12-03T04:24:17.722Z,-2.03
2022-12-03T04:27:03.113Z,-2.05
2022-12-03T04:29:30.572Z,-2.10
2022-12-03T04:32:15.746Z,-2.02
2022-12-03T04:35:01.097Z,-2.06
2022-12-03T04:37:30.075Z,-2.06
2022-12-03T04:39:57.609Z,-2.05
2022-12-03T04:42:25.098Z,-2.19
2022-12-03T04:44:52.913Z,-2.03
2022-12-03T04:47:22.432Z,-2.01
2022-12-03T04:49:51.736Z,-2.03
2022-12-03T04:52:20.676Z,-1.99
2022-12-03T04:54:49.661Z,-2.05
2022-12-03T04:57:17.922Z,-2.00
2022-12-03T04:59:45.340Z,-1.93
2022-12-03T05:02:12.877Z,-1.94
2022-12-03T05:04:40.431Z,-1.91
2022-12-03T05:07:07.857Z,-1.97
2022-12-03T05:09:35.286Z,-2.00
2022-12-03T05:12:04.637Z,-2.01
2022-12-03T05:14:32.148Z,-2.04
2022-12-03T05:16:59.641Z,-1.97
2022-12-03T05:19:47.177Z,-1.92
2022-12-03T05:22:14.613Z,-1.91
2022-12-03T05:24:42.201Z,-1.92
2022-12-03T05:27:10.954Z,-2.04
2022-12-03T05:29:38.410Z,-2.06
2022-12-03T05:32:06.247Z,-1.99
2022-12-03T05:34:33.666Z,-1.97
2022-12-03T05:37:01.085Z,-2.03
2022-12-03T05:39:28.506Z,-2.07
2022-12-03T05:42:13.691Z,-2.09
2022-12-03T05:44:42.439Z,-2.06
2022-12-03T05:47:09.890Z,-2.00
2022-12-03T05:49:37.383Z,-2.09
2022-12-03T05:52:04.998Z,-2.08
2022-12-03T05:54:32.558Z,-2.06
2022-12-03T05:57:00.026Z,-2.04
2022-12-03T05:59:27.466Z,-2.03
2022-12-03T06:01:56.487Z,-1.97
2022-12-03T06:04:24.012Z,-1.92
2022-12-03T06:06:51.507Z,-1.95
2022-12-03T06:09:18.957Z,-1.90
2022-12-03T06:11:46.423Z,-1.91
2022-12-03T06:14:13.876Z,-1.91
2022-12-03T06:16:43.665Z,-1.96
2022-12-03T06:19:12.480Z,-1.97
2022-12-03T06:21:39.946Z,-2.00
2022-12-03T06:24:07.630Z,-1.93
2022-12-03T06:26:35.145Z,-1.95
2022-12-03T06:29:02.584Z,-1.97
2022-12-03T06:31:30.090Z,-2.02
2022-12-03T06:33:57.652Z,-1.99
2022-12-03T06:36:27.704Z,-2.03
2022-12-03T06:38:55.333Z,-2.13
2022-12-03T06:41:22.794Z,-2.04
2022-12-03T06:43:50.201Z,-2.03
2022-12-03T06:46:17.806Z,-2.00
2022-12-03T06:48:45.333Z,-1.97
2022-12-03T06:51:12.839Z,-2.00
2022-12-03T06:53:41.671Z,-1.99
2022-12-03T06:56:09.266Z,-2.01
2022-12-03T06:58:36.750Z,-1.97
2022-12-03T07:01:04.254Z,-2.01
2022-12-03T07:03:31.689Z,-1.99
2022-12-03T07:05:59.121Z,-2.02
2022-12-03T07:08:27.256Z,-1.97
2022-12-03T07:10:56.086Z,-1.92
2022-12-03T07:13:23.491Z,-1.95
2022-12-03T07:15:50.933Z,-1.95
2022-12-03T07:18:18.366Z,-1.97
2022-12-03T07:20:45.773Z,-1.98
2022-12-03T07:23:13.191Z,-1.96
2022-12-03T07:25:40.601Z,-1.96
2022-12-03T07:28:09.330Z,-1.91
2022-12-03T07:30:36.739Z,-1.87
2022-12-03T07:33:04.142Z,-1.84
2022-12-03T07:35:31.541Z,-1.84
2022-12-03T07:37:58.961Z,-1.87
2022-12-03T07:40:26.380Z,-1.89
2022-12-03T07:42:53.813Z,-1.93
2022-12-03T07:45:22.597Z,-1.84
2022-12-03T07:47:50.030Z,-1.77
2022-12-03T07:50:17.806Z,-1.68
2022-12-03T07:52:45.220Z,-1.73
2022-12-03T07:55:13.233Z,-1.72
2022-12-03T07:57:40.725Z,-1.90
2022-12-03T08:00:09.116Z,-1.84
2022-12-03T08:02:37.967Z,-1.89
2022-12-03T08:05:06.237Z,-1.95
2022-12-03T08:07:34.135Z,-1.96
2022-12-03T08:10:01.658Z,-1.99
2022-12-03T08:12:39.882Z,-1.93
2022-12-03T08:15:12.764Z,-1.98
2022-12-03T08:17:42.261Z,-1.91
2022-12-03T08:20:15.473Z,-1.88
2022-12-03T08:22:43.216Z,-1.99
2022-12-03T08:25:18.230Z,-2.01
2022-12-03T08:27:45.691Z,-1.97
2022-12-03T08:30:15.307Z,-1.99
2022-12-03T08:32:44.675Z,-1.94
2022-12-03T08:35:14.526Z,-1.86
2022-12-03T08:37:41.997Z,-1.87
2022-12-03T08:40:22.751Z,-1.92
2022-12-03T08:42:50.769Z,-1.99
2022-12-03T08:45:39.279Z,-2.02
2022-12-03T08:48:22.221Z,-1.99
2022-12-03T08:50:49.693Z,-2.02
2022-12-03T08:53:28.584Z,-2.03
2022-12-03T08:55:57.811Z,-1.94
2022-12-03T08:58:29.199Z,-1.90
2022-12-03T09:00:59.604Z,-1.91
2022-12-03T09:03:31.379Z,-1.90
2022-12-03T09:05:58.870Z,-2.00
2022-12-03T09:08:26.277Z,-1.88
2022-12-03T09:10:53.763Z,-1.89
2022-12-03T09:13:21.216Z,-1.89
2022-12-03T09:15:48.662Z,-1.91
2022-12-03T09:18:16.055Z,-1.85
2022-12-03T09:20:44.820Z,-1.86
2022-12-03T09:23:12.251Z,-1.90
2022-12-03T09:25:39.748Z,-1.92
2022-12-03T09:28:07.266Z,-1.82
2022-12-03T09:30:34.760Z,-1.82
2022-12-03T09:33:02.336Z,-1.87
2022-12-03T09:35:29.749Z,-1.82
2022-12-03T09:37:58.693Z,-1.88
2022-12-03T09:40:26.190Z,-1.92
2022-12-03T09:42:53.779Z,-1.87
2022-12-03T09:45:21.355Z,-1.82
2022-12-03T09:47:50.279Z,-1.82
2022-12-03T09:50:21.091Z,-1.75
2022-12-03T09:52:50.862Z,-1.87
2022-12-03T09:55:23.512Z,-1.81
2022-12-03T09:57:52.336Z,-1.83
2022-12-03T10:00:23.358Z,-1.76
2022-12-03T10:02:53.149Z,-1.86
2022-12-03T10:05:22.139Z,-1.75
2022-12-03T10:07:50.672Z,-1.83
2022-12-03T10:10:22.035Z,-1.89
2022-12-03T10:12:50.417Z,-1.79
2022-12-03T10:15:20.349Z,-1.86
2022-12-03T10:17:49.238Z,-1.84
2022-12-03T10:20:19.367Z,-1.89
2022-12-03T10:22:48.620Z,-1.88
2022-12-03T10:25:17.731Z,-1.91
2022-12-03T10:27:57.497Z,-1.87
2022-12-03T10:30:28.219Z,-1.92
2022-12-03T10:32:57.770Z,-1.88
2022-12-03T10:35:36.095Z,-1.94
2022-12-03T10:38:05.411Z,-1.77
2022-12-03T10:40:35.171Z,-1.81
2022-12-03T10:43:23.143Z,-1.82
2022-12-03T10:45:52.087Z,-1.83
2022-12-03T10:48:21.546Z,-1.90
2022-12-03T10:50:51.853Z,-1.95
2022-12-03T10:53:21.101Z,-1.96
2022-12-03T10:55:51.101Z,-1.84
2022-12-03T10:58:23.336Z,-1.96
2022-12-03T11:00:52.463Z,-1.99
2022-12-03T11:03:22.691Z,-1.93
2022-12-03T11:05:50.589Z,-1.88
2022-12-03T11:08:20.799Z,-1.87
2022-12-03T11:10:58.146Z,-2.06
2022-12-03T11:13:46.451Z,-1.86
2022-12-03T11:16:14.879Z,-1.90
2022-12-03T11:19:02.947Z,-1.91
2022-12-03T11:21:31.396Z,-2.00
2022-12-03T11:24:21.089Z,-1.92
2022-12-03T11:27:19.025Z,-1.96
2022-12-03T11:30:01.858Z,-1.85
2022-12-03T11:33:08.609Z,-1.69
2022-12-03T11:36:15.931Z,-1.71
2022-12-03T11:38:55.037Z,-1.77
2022-12-03T11:41:26.126Z,-1.74
2022-12-03T11:44:21.771Z,-1.66
2022-12-03T11:46:50.716Z,-1.71
2022-12-03T11:49:37.293Z,-1.82
2022-12-03T11:52:18.787Z,-1.85
2022-12-03T11:54:50.412Z,-1.77
2022-12-03T11:57:28.321Z,-1.81
2022-12-03T12:00:00.655Z,-1.75
2022-12-03T12:02:29.468Z,-1.82
2022-12-03T12:04:56.892Z,-1.83
2022-12-03T12:07:36.723Z,-1.73
2022-12-03T12:10:04.937Z,-1.64
2022-12-03T12:12:38.503Z,-1.66
2022-12-03T12:15:39.086Z,-1.72
2022-12-03T12:18:36.581Z,-1.71
2022-12-03T12:21:37.485Z,-1.65
2022-12-03T12:24:32.858Z,-1.57
2022-12-03T12:27:02.246Z,-1.54
2022-12-03T12:29:29.700Z,-1.63
2022-12-03T12:32:14.911Z,-1.61
2022-12-03T12:34:46.698Z,-1.67
2022-12-03T12:37:18.394Z,-1.71
2022-12-03T12:39:45.934Z,-1.68
2022-12-03T12:42:32.686Z,-1.74
2022-12-03T12:45:06.230Z,-1.70
2022-12-03T12:47:35.282Z,-1.67
2022-12-03T12:50:10.363Z,-1.70
2022-12-03T12:52:41.690Z,-1.74
2022-12-03T12:55:12.123Z,-1.67
2022-12-03T12:57:39.534Z,-1.61
2022-12-03T13:00:08.632Z,-1.56
2022-12-03T13:02:45.790Z,-1.56
2022-12-03T13:05:15.032Z,-1.54
2022-12-03T13:07:44.104Z,-1.54
2022-12-03T13:10:33.872Z,-1.44
2022-12-03T13:13:15.293Z,-1.55
2022-12-03T13:15:50.612Z,-1.56
2022-12-03T13:18:32.112Z,-1.55
2022-12-03T13:21:12.495Z,-1.63
2022-12-03T13:23:40.969Z,-1.63
2022-12-03T13:26:32.931Z,-1.64
2022-12-03T13:29:11.812Z,-1.54
2022-12-03T13:31:43.466Z,-1.60
2022-12-03T13:34:17.414Z,-1.55
2022-12-03T13:36:52.004Z,-1.53
2022-12-03T13:39:28.733Z,-1.53
2022-12-03T13:42:14.089Z,-1.61
2022-12-03T13:44:46.185Z,-1.59
2022-12-03T13:47:15.625Z,-1.57
2022-12-03T13:49:48.548Z,-1.57
2022-12-03T13:52:21.677Z,-1.54
2022-12-03T13:54:51.739Z,-1.54
2022-12-03T13:57:19.688Z,-1.46
2022-12-03T13:59:47.155Z,-1.46
2022-12-03T14:02:14.641Z,-1.40
2022-12-03T14:04:42.126Z,-1.42
2022-12-03T14:07:09.542Z,-1.54
2022-12-03T14:09:38.318Z,-1.57
2022-12-03T14:12:23.756Z,-1.50
2022-12-03T14:14:51.243Z,-1.47
2022-12-03T14:17:18.730Z,-1.47
2022-12-03T14:19:46.223Z,-1.48
2022-12-03T14:22:13.640Z,-1.38
2022-12-03T14:24:42.736Z,-1.34
2022-12-03T14:27:10.175Z,-1.39
2022-12-03T14:29:37.660Z,-1.35
2022-12-03T14:32:05.212Z,-1.25
2022-12-03T14:34:32.709Z,-1.10
2022-12-03T14:37:00.337Z,-1.20
2022-12-03T14:39:27.730Z,-1.20
2022-12-03T14:42:14.491Z,-1.18
2022-12-03T14:44:43.164Z,-1.23
2022-12-03T14:47:11.014Z,-1.23
2022-12-03T14:49:38.541Z,-1.14
2022-12-03T14:52:09.848Z,-1.11
2022-12-03T14:54:41.811Z,-1.03
2022-12-03T14:57:11.210Z,-1.14
2022-12-03T14:59:38.741Z,-1.10
2022-12-03T15:02:06.247Z,-1.22
2022-12-03T15:04:34.491Z,-1.15
2022-12-03T15:07:01.913Z,-1.15
2022-12-03T15:09:29.370Z,-1.15
2022-12-03T15:11:56.831Z,-1.18
2022-12-03T15:14:25.607Z,-1.22
2022-12-03T15:16:53.210Z,-1.10
2022-12-03T15:19:20.711Z,-1.04
2022-12-03T15:21:48.121Z,-1.16
2022-12-03T15:24:15.598Z,-1.14
2022-12-03T15:26:43.001Z,-1.26
2022-12-03T15:29:10.438Z,-1.26
2022-12-03T15:31:39.353Z,-1.28
2022-12-03T15:34:06.876Z,-1.22
2022-12-03T15:36:34.349Z,-1.30
2022-12-03T15:39:01.800Z,-1.30
2022-12-03T15:41:29.947Z,-1.37
2022-12-03T15:43:59.371Z,-1.36
2022-12-03T15:46:28.330Z,-1.36
2022-12-03T15:48:57.505Z,-1.31
2022-12-03T15:51:25.484Z,-1.37
2022-12-03T15:53:52.902Z,-1.45
2022-12-03T15:56:20.552Z,-1.49
2022-12-03T15:58:48.017Z,-1.49
2022-12-03T16:01:17.891Z,-1.50
2022-12-03T16:03:45.371Z,-1.46
2022-12-03T16:06:14.729Z,-1.46
2022-12-03T16:08:42.183Z,-1.52
2022-12-03T16:11:09.593Z,-1.45
2022-12-03T16:13:37.010Z,-1.44
2022-12-03T16:16:04.610Z,-1.46
2022-12-03T16:18:32.076Z,-1.51
2022-12-03T16:20:59.546Z,-1.57
2022-12-03T16:23:28.279Z,-1.61
2022-12-03T16:25:55.704Z,-1.63
2022-12-03T16:28:23.116Z,-1.54
2022-12-03T16:30:50.593Z,-1.47
2022-12-03T16:33:22.520Z,-1.46
2022-12-03T16:35:53.220Z,-1.44
2022-12-03T16:38:20.632Z,-1.44
2022-12-03T16:40:49.377Z,-1.51
2022-12-03T16:43:16.829Z,-1.50
2022-12-03T16:46:09.697Z,-1.48
2022-12-03T16:48:37.216Z,-1.50
2022-12-03T16:51:04.797Z,-1.54
2022-12-03T16:53:32.318Z,-1.49
2022-12-03T16:56:01.171Z,-1.42
2022-12-03T16:58:29.030Z,-1.40
2022-12-03T17:00:56.438Z,-1.35
2022-12-03T17:03:26.694Z,-1.34
2022-12-03T17:05:57.971Z,-1.42
2022-12-03T17:08:25.702Z,-1.45
2022-12-03T17:10:53.175Z,-1.44
2022-12-03T17:13:23.020Z,-1.52
2022-12-03T17:15:50.671Z,-1.46
2022-12-03T17:18:18.230Z,-1.41
2022-12-03T17:20:45.657Z,-1.37
2022-12-03T17:23:13.401Z,-1.36
2022-12-03T17:25:40.908Z,-1.34
2022-12-03T17:28:08.432Z,-1.36
2022-12-03T17:30:37.285Z,-1.35
2022-12-03T17:33:05.080Z,-1.30
2022-12-03T17:35:32.676Z,-1.29
2022-12-03T17:38:02.391Z,-1.28
2022-12-03T17:40:30.225Z,-1.21
2022-12-03T17:42:57.908Z,-1.38
2022-12-03T17:45:25.538Z,-1.34
2022-12-03T17:47:54.447Z,-1.28
2022-12-03T17:50:21.970Z,-1.33
2022-12-03T17:52:49.659Z,-1.27
2022-12-03T17:55:27.811Z,-1.25
2022-12-03T17:58:01.294Z,-1.31
2022-12-03T18:00:31.088Z,-1.27
2022-12-03T18:03:00.030Z,-1.35
2022-12-03T18:05:32.032Z,-1.31
2022-12-03T18:07:59.866Z,-1.37
2022-12-03T18:10:41.461Z,-1.30
2022-12-03T18:13:08.928Z,-1.35
2022-12-03T18:15:38.634Z,-1.32
2022-12-03T18:18:07.596Z,-1.20
2022-12-03T18:20:35.259Z,-1.40
2022-12-03T18:23:04.384Z,-1.51
2022-12-03T18:25:32.129Z,-1.36
2022-12-03T18:27:59.702Z,-1.29
2022-12-03T18:30:27.331Z,-1.29
2022-12-03T18:32:54.786Z,-1.27
2022-12-03T18:35:23.944Z,-1.29
2022-12-03T18:37:52.214Z,-1.23
2022-12-03T18:40:22.968Z,-1.52
2022-12-03T18:42:50.730Z,-1.33
2022-12-03T18:45:18.505Z,-1.32
2022-12-03T18:47:46.286Z,-1.30
2022-12-03T18:50:14.613Z,-1.28
2022-12-03T18:52:43.578Z,-1.45
2022-12-03T18:55:17.664Z,-1.27
2022-12-03T18:57:45.294Z,-1.32
2022-12-03T19:00:14.274Z,-1.29
2022-12-03T19:05:29.565Z,-1.45
2022-12-03T19:07:58.697Z,-1.32
2022-12-03T19:10:27.156Z,-1.44
2022-12-03T19:12:54.878Z,-1.35
2022-12-03T19:15:22.792Z,-1.77
2022-12-03T19:17:51.488Z,-1.29
2022-12-03T19:20:19.259Z,-1.32
2022-12-03T19:22:46.805Z,-1.57
2022-12-03T19:25:16.117Z,-1.31
2022-12-03T19:27:43.994Z,-1.49
2022-12-03T19:30:12.373Z,-1.55
2022-12-03T19:32:39.884Z,-1.28
2022-12-03T19:35:10.999Z,-1.28
2022-12-03T19:37:38.470Z,-1.35
2022-12-03T19:40:07.560Z,-1.31
2022-12-03T19:42:36.477Z,-1.29
2022-12-03T19:45:04.614Z,-1.36
2022-12-03T19:47:33.303Z,-1.43
2022-12-03T19:50:00.881Z,-1.30
2022-12-03T19:52:28.324Z,-1.33
2022-12-03T19:54:57.730Z,-1.36
2022-12-03T19:57:25.480Z,-1.39
2022-12-03T19:59:54.645Z,-1.42
2022-12-03T20:02:22.518Z,-1.46
2022-12-03T20:04:50.247Z,-1.47
2022-12-03T20:07:17.764Z,-1.38
2022-12-03T20:09:47.628Z,-1.36
2022-12-03T20:12:15.341Z,-1.41
2022-12-03T20:14:42.998Z,-1.40
2022-12-03T20:17:11.929Z,-1.55
2022-12-03T20:19:39.551Z,-1.35
2022-12-03T20:22:07.163Z,-1.50
2022-12-03T20:24:34.630Z,-1.37
2022-12-03T20:27:02.252Z,-1.38
2022-12-03T20:29:29.842Z,-1.39
2022-12-03T20:31:57.407Z,-1.38
2022-12-03T20:34:26.471Z,-1.63
2022-12-03T20:36:54.072Z,-1.37
2022-12-03T20:39:21.606Z,-1.34
2022-12-03T20:41:49.141Z,-1.35
2022-12-03T20:44:16.934Z,-1.35
2022-12-03T20:46:44.690Z,-1.41
2022-12-03T20:49:12.397Z,-1.30
2022-12-03T20:51:42.334Z,-1.39
2022-12-03T20:54:10.857Z,-1.24
2022-12-03T20:56:39.340Z,-1.30
2022-12-03T20:59:09.765Z,-1.35
2022-12-03T21:01:38.315Z,-1.47
2022-12-03T21:04:09.871Z,-1.40
2022-12-03T21:06:38.373Z,-1.35
2022-12-03T21:09:08.203Z,-1.39
2022-12-03T21:11:38.880Z,-1.46
2022-12-03T21:14:06.450Z,-1.35
2022-12-03T21:17:06.775Z,-1.43
2022-12-03T21:19:24.715Z,-1.40
2022-12-03T21:21:52.378Z,-1.32
2022-12-03T21:24:21.343Z,-1.50
2022-12-03T21:26:50.180Z,-1.39
2022-12-03T21:29:18.152Z,-1.42
2022-12-03T21:31:46.578Z,-1.36
2022-12-03T21:34:14.164Z,-1.51
2022-12-03T21:36:41.943Z,-1.35
2022-12-03T21:39:09.740Z,-1.55
2022-12-03T21:41:38.765Z,-1.42
2022-12-03T21:44:06.408Z,-1.30
2022-12-03T21:47:09.454Z,-1.40
2022-12-03T21:49:25.287Z,-1.42
2022-12-03T21:51:53.084Z,-1.28
2022-12-03T21:54:20.699Z,-1.33
2022-12-03T21:56:54.267Z,-1.51
2022-12-03T21:59:21.984Z,-1.54
2022-12-03T22:01:49.625Z,-1.39
2022-12-03T22:04:18.421Z,-1.35
2022-12-03T22:06:45.945Z,-1.40
2022-12-03T22:09:13.522Z,-1.38
2022-12-03T22:11:41.808Z,-1.37
2022-12-03T22:14:12.242Z,-1.50
2022-12-03T22:16:39.954Z,-1.42
2022-12-03T22:19:11.505Z,-1.41
2022-12-03T22:21:39.191Z,-1.47
2022-12-03T22:24:07.422Z,-1.59
2022-12-03T22:26:35.344Z,-1.46
2022-12-03T22:29:02.890Z,-1.60
2022-12-03T22:31:31.975Z,-1.55
2022-12-03T22:33:59.589Z,-1.78
2022-12-03T22:36:27.123Z,-1.56
2022-12-03T22:38:54.864Z,-1.58
2022-12-03T22:41:22.605Z,-1.55
2022-12-03T22:43:50.992Z,-1.52
2022-12-03T22:46:19.106Z,-1.40
2022-12-03T22:48:48.323Z,-1.95
2022-12-03T22:51:18.963Z,-1.64
2022-12-03T22:53:46.677Z,-1.91
2022-12-03T22:56:14.349Z,-1.66
2022-12-03T22:58:42.122Z,-1.74
2022-12-03T23:01:10.139Z,-1.67
2022-12-03T23:03:37.954Z,-1.77
2022-12-03T23:06:11.780Z,-1.85
2022-12-03T23:08:39.580Z,-1.72
2022-12-03T23:11:07.623Z,-1.73
2022-12-03T23:13:35.366Z,-1.74
2022-12-03T23:16:03.262Z,-1.71
2022-12-03T23:18:30.820Z,-1.78
2022-12-03T23:20:58.815Z,-1.79
2022-12-03T23:23:29.068Z,-1.65
2022-12-03T23:26:00.476Z,-1.61
2022-12-03T23:28:29.072Z,-1.63
2022-12-03T23:30:57.283Z,-1.70
2022-12-03T23:33:25.587Z,-1.70
2022-12-03T23:35:53.064Z,-1.76
2022-12-03T23:38:21.142Z,-1.75
2022-12-03T23:40:52.817Z,-1.88
2022-12-03T23:43:20.304Z,-1.70
2022-12-03T23:45:47.767Z,-1.71
2022-12-03T23:48:15.230Z,-1.68
2022-12-03T23:50:42.677Z,-1.71
2022-12-03T23:53:10.188Z,-1.79
2022-12-03T23:55:40.773Z,-1.85
2022-12-03T23:58:09.530Z,-1.82
